Time;durP1;ratioP1;P1;durP2;ratioP2;P2;SDS_P1;SDS_P2;PMS_P1;PMS_P2;Temp;Humidity;BMP_temperature;BMP_pressure;BME280_temperature;BME280_humidity;BME280_pressure;Samples;Min_cycle;Max_cycle;Signal;HPM_P1;HPM_P2
2022/10/11 00:00:52;;;;;;;0.73;0.73;;;19.80;60.50;;;;;;5063405;28;20012;-67
2022/10/11 00:03:18;;;;;;;0.90;0.90;;;19.80;60.50;;;;;;5063004;28;20021;-68
2022/10/11 00:05:44;;;;;;;0.65;0.52;;;19.80;60.50;;;;;;5063393;28;20354;-68
2022/10/11 00:08:11;;;;;;;1.02;0.80;;;19.80;60.50;;;;;;5063378;28;20024;-69
2022/10/11 00:10:37;;;;;;;0.80;0.80;;;19.80;60.60;;;;;;5063404;28;20025;-69
2022/10/11 00:13:03;;;;;;;0.80;0.80;;;19.80;60.50;;;;;;5063226;28;20032;-69
2022/10/11 00:15:29;;;;;;;0.85;0.80;;;19.80;60.60;;;;;;5063122;28;20041;-67
2022/10/11 00:17:55;;;;;;;0.80;0.80;;;19.80;60.60;;;;;;5063361;28;20079;-69
2022/10/11 00:20:21;;;;;;;0.70;0.70;;;19.80;60.60;;;;;;5063253;28;20017;-69
2022/10/11 00:22:48;;;;;;;0.63;0.63;;;19.70;60.50;;;;;;5063251;28;20028;-68
2022/10/11 00:25:14;;;;;;;0.50;0.50;;;19.80;60.50;;;;;;5063276;28;20021;-68
2022/10/11 00:27:40;;;;;;;0.88;0.70;;;19.80;60.60;;;;;;5063217;28;20021;-68
2022/10/11 00:30:06;;;;;;;1.05;0.63;;;19.80;60.60;;;;;;5063214;28;20020;-69
2022/10/11 00:32:34;;;;;;;0.80;0.80;;;19.80;60.60;;;;;;5063126;28;20025;-68
2022/10/11 00:35:05;;;;;;;0.68;0.68;;;19.70;60.50;;;;;;5063154;28;20013;-68
2022/10/11 00:37:32;;;;;;;0.60;0.60;;;19.70;60.50;;;;;;5063161;28;20354;-68
2022/10/11 00:39:57;;;;;;;0.75;0.75;;;19.80;60.60;;;;;;5063070;28;20032;-67
2022/10/11 00:42:23;;;;;;;0.50;0.50;;;19.80;60.60;;;;;;5063058;28;20013;-67
2022/10/11 00:44:50;;;;;;;0.70;0.70;;;19.70;60.50;;;;;;5063040;28;20036;-69
2022/10/11 00:47:22;;;;;;;0.70;0.65;;;19.70;60.50;;;;;;5064328;28;20256;-68
2022/10/11 00:49:52;;;;;;;1.15;0.88;;;19.80;60.60;;;;;;5066874;28;20024;-67
2022/10/11 00:52:27;;;;;;;0.70;0.70;;;19.80;60.60;;;;;;5066884;28;20020;-67
2022/10/11 00:54:55;;;;;;;0.90;0.85;;;19.80;60.50;;;;;;5066755;28;20063;-69
2022/10/11 00:57:26;;;;;;;0.70;0.70;;;19.70;60.50;;;;;;5066812;28;20038;-68
2022/10/11 00:59:54;;;;;;;0.70;0.57;;;19.80;60.50;;;;;;5066749;28;20421;-70
2022/10/11 01:02:22;;;;;;;0.70;0.70;;;19.80;60.50;;;;;;5066654;28;20344;-70
2022/10/11 01:04:49;;;;;;;0.75;0.70;;;19.70;60.50;;;;;;5066612;28;20233;-69
2022/10/11 01:07:17;;;;;;;0.98;0.77;;;19.80;60.50;;;;;;5066561;28;20021;-70
2022/10/11 01:09:43;;;;;;;0.70;0.70;;;19.70;60.50;;;;;;5066582;28;20021;-70
2022/10/11 01:12:18;;;;;;;0.98;0.77;;;19.70;60.50;;;;;;5066448;28;20043;-70
2022/10/11 01:15:11;;;;;;;0.90;0.80;;;19.70;60.50;;;;;;5066149;28;20017;-69
2022/10/11 01:17:46;;;;;;;1.00;1.00;;;19.70;60.50;;;;;;5066367;28;20385;-68
2022/10/11 01:20:36;;;;;;;0.85;0.85;;;19.70;60.50;;;;;;5066372;28;20051;-67
2022/10/11 01:23:51;;;;;;;0.90;0.90;;;19.70;60.50;;;;;;5066288;28;20024;-68
2022/10/11 01:26:54;;;;;;;0.60;0.60;;;19.70;60.50;;;;;;5062974;28;20040;-68
2022/10/11 01:30:04;;;;;;;0.77;0.68;;;19.70;60.50;;;;;;5066169;28;20095;-68
2022/10/11 01:32:59;;;;;;;0.70;0.70;;;19.70;60.50;;;;;;5066567;28;20088;-69
2022/10/11 01:35:45;;;;;;;0.68;0.68;;;19.70;60.50;;;;;;5066060;28;20023;-69
2022/10/11 01:38:18;;;;;;;0.60;0.60;;;19.70;60.50;;;;;;5066013;28;20060;-68
2022/10/11 01:40:58;;;;;;;0.70;0.70;;;19.70;60.50;;;;;;5065981;28;20017;-68
2022/10/11 01:43:26;;;;;;;0.70;0.70;;;19.70;60.60;;;;;;5065877;28;20021;-68
2022/10/11 01:45:53;;;;;;;0.70;0.70;;;19.60;60.50;;;;;;5065849;28;20058;-68
2022/10/11 01:48:20;;;;;;;0.70;0.70;;;19.70;60.60;;;;;;5065810;28;20024;-68
2022/10/11 01:50:51;;;;;;;1.00;0.90;;;19.70;60.60;;;;;;5065732;28;20013;-68
2022/10/11 01:53:19;;;;;;;0.88;0.70;;;19.60;60.50;;;;;;5065602;28;20200;-69
2022/10/11 01:55:59;;;;;;;;;;;19.70;60.60;;;;;;5066034;28;20021;-68
2022/10/11 01:59:01;;;;;;;1.00;0.90;;;19.60;60.40;;;;;;5065431;28;19901;-68
2022/10/11 02:01:52;;;;;;;0.70;0.63;;;19.60;60.40;;;;;;5065526;28;20020;-68
2022/10/11 02:04:41;;;;;;;0.90;0.80;;;19.70;60.50;;;;;;5065507;28;20088;-69
2022/10/11 02:07:45;;;;;;;1.02;0.63;;;19.60;60.40;;;;;;5065496;28;20377;-68
2022/10/11 02:10:38;;;;;;;0.68;0.68;;;19.60;60.50;;;;;;5062216;28;20096;-68
2022/10/11 02:13:34;;;;;;;0.47;0.47;;;19.70;60.50;;;;;;5062188;28;20400;-68
2022/10/11 02:16:03;;;;;;;1.48;1.00;;;19.70;60.50;;;;;;5063999;28;20049;-68
2022/10/11 02:18:35;;;;;;;0.60;0.60;;;19.70;60.50;;;;;;5065290;28;20021;-69
2022/10/11 02:21:04;;;;;;;1.02;0.93;;;19.70;60.60;;;;;;5065235;28;20208;-68
2022/10/11 02:23:39;;;;;;;1.00;0.95;;;19.70;60.50;;;;;;5065149;28;20063;-68
2022/10/11 02:26:07;;;;;;;1.02;1.00;;;19.70;60.50;;;;;;5065116;28;20071;-69
2022/10/11 02:28:36;;;;;;;0.88;0.82;;;19.70;60.60;;;;;;5065030;28;20017;-68
2022/10/11 02:31:06;;;;;;;0.70;0.70;;;19.60;60.40;;;;;;5065011;28;20020;-68
2022/10/11 02:34:10;;;;;;;0.80;0.80;;;19.70;60.60;;;;;;5064880;28;20052;-68
2022/10/11 02:36:46;;;;;;;0.50;0.50;;;19.60;60.40;;;;;;5064902;28;20036;-67
2022/10/11 02:39:19;;;;;;;0.90;0.80;;;19.60;60.50;;;;;;5064849;28;20021;-68
2022/10/11 02:41:46;;;;;;;0.85;0.85;;;19.60;60.40;;;;;;5064842;28;20027;-68
2022/10/11 02:44:17;;;;;;;0.85;0.63;;;19.60;60.40;;;;;;5064739;28;20013;-68
2022/10/11 02:46:45;;;;;;;0.55;0.55;;;19.60;60.50;;;;;;5064691;28;20036;-68
2022/10/11 02:49:12;;;;;;;1.55;0.70;;;19.60;60.50;;;;;;5064659;28;20020;-69
2022/10/11 02:51:38;;;;;;;0.82;0.82;;;19.60;60.50;;;;;;5064570;28;20016;-67
2022/10/11 02:54:04;;;;;;;1.08;0.70;;;19.60;60.50;;;;;;5063290;28;20024;-68
2022/10/11 02:56:29;;;;;;;1.45;0.85;;;19.60;60.50;;;;;;5064425;28;20229;-68
2022/10/11 02:58:55;;;;;;;0.70;0.70;;;19.60;60.50;;;;;;5064435;28;20021;-68
2022/10/11 03:01:21;;;;;;;0.70;0.70;;;19.60;60.50;;;;;;5064385;28;20013;-68
2022/10/11 03:03:47;;;;;;;0.70;0.70;;;19.60;60.50;;;;;;5064404;28;20334;-68
2022/10/11 03:06:12;;;;;;;0.82;0.82;;;19.60;60.50;;;;;;5064295;28;20080;-69
2022/10/11 03:08:38;;;;;;;1.02;0.80;;;19.60;60.50;;;;;;5064252;28;20025;-69
2022/10/11 03:11:04;;;;;;;1.00;0.90;;;19.60;60.50;;;;;;5063575;28;20080;-69
2022/10/11 03:13:29;;;;;;;1.50;1.00;;;19.60;60.50;;;;;;5064096;28;20062;-68
2022/10/11 03:15:55;;;;;;;0.98;0.88;;;19.60;60.50;;;;;;5063965;28;20049;-67
2022/10/11 03:18:21;;;;;;;0.80;0.80;;;19.60;60.50;;;;;;5064079;28;20020;-68
2022/10/11 03:20:47;;;;;;;0.80;0.80;;;19.60;60.50;;;;;;5064041;28;20023;-68
2022/10/11 03:23:12;;;;;;;1.45;1.00;;;19.60;60.50;;;;;;5063993;28;20032;-68
2022/10/11 03:25:38;;;;;;;1.40;0.90;;;19.60;60.50;;;;;;5063952;28;20020;-68
2022/10/11 03:28:04;;;;;;;0.82;0.82;;;19.60;60.50;;;;;;5063907;28;20039;-68
2022/10/11 03:30:30;;;;;;;0.98;0.88;;;19.60;60.50;;;;;;5063866;28;20328;-68
2022/10/11 03:32:56;;;;;;;1.08;0.98;;;19.60;60.50;;;;;;5063720;28;20032;-68
2022/10/11 03:35:21;;;;;;;0.82;0.82;;;19.60;60.50;;;;;;5063776;28;20017;-68
2022/10/11 03:37:47;;;;;;;1.67;0.70;;;19.60;60.50;;;;;;5063777;28;20084;-68
2022/10/11 03:40:13;;;;;;;0.77;0.75;;;19.60;60.50;;;;;;5063702;28;20012;-67
2022/10/11 03:42:40;;;;;;;0.63;0.63;;;19.60;60.50;;;;;;5063685;28;20023;-68
2022/10/11 03:45:07;;;;;;;0.70;0.70;;;19.60;60.50;;;;;;5063645;28;20063;-68
2022/10/11 03:47:38;;;;;;;1.27;1.17;;;19.50;60.40;;;;;;5063647;28;20020;-67
2022/10/11 03:50:05;;;;;;;0.65;0.65;;;19.50;60.50;;;;;;5063572;28;20281;-67
2022/10/11 03:52:32;;;;;;;0.93;0.87;;;19.50;60.50;;;;;;5063600;28;20016;-68
2022/10/11 03:54:58;;;;;;;0.77;0.77;;;19.50;60.50;;;;;;5063529;28;20066;-68
2022/10/11 03:57:23;;;;;;;0.70;0.70;;;19.60;60.60;;;;;;5063508;28;20084;-68
2022/10/11 03:59:49;;;;;;;1.23;0.93;;;19.50;60.50;;;;;;5063442;28;20341;-68
2022/10/11 04:02:15;;;;;;;0.88;0.88;;;19.50;60.50;;;;;;5063447;28;20096;-68
2022/10/11 04:04:41;;;;;;;0.90;0.77;;;19.60;60.60;;;;;;5063434;28;20032;-68
2022/10/11 04:07:07;;;;;;;0.70;0.70;;;19.50;60.40;;;;;;5062255;28;20017;-69
2022/10/11 04:09:33;;;;;;;1.15;1.00;;;19.50;61.00;;;;;;5063416;28;20028;-69
2022/10/11 04:11:58;;;;;;;0.70;0.70;;;19.50;60.40;;;;;;5063430;28;20021;-68
2022/10/11 04:14:25;;;;;;;0.80;0.80;;;19.50;60.50;;;;;;5063270;28;20024;-68
2022/10/11 04:16:50;;;;;;;0.85;0.85;;;19.50;60.50;;;;;;5063109;28;20398;-68
2022/10/11 04:19:16;;;;;;;0.50;0.50;;;19.50;60.50;;;;;;5063302;28;20025;-68
2022/10/11 04:21:42;;;;;;;0.70;0.70;;;19.50;60.50;;;;;;5063720;28;20017;-69
2022/10/11 04:24:10;;;;;;;0.93;0.80;;;19.50;60.50;;;;;;5067361;28;20056;-69
2022/10/11 04:26:36;;;;;;;0.90;0.88;;;19.50;61.10;;;;;;5067355;28;20025;-69
2022/10/11 04:29:02;;;;;;;0.82;0.82;;;19.50;60.40;;;;;;5067294;28;20085;-68
2022/10/11 04:31:27;;;;;;;0.82;0.77;;;19.50;60.50;;;;;;5067237;28;20031;-68
2022/10/11 04:33:53;;;;;;;0.77;0.77;;;19.50;60.50;;;;;;5067130;28;20020;-68
2022/10/11 04:36:19;;;;;;;0.75;0.75;;;19.50;60.50;;;;;;5067177;28;20036;-68
2022/10/11 04:38:44;;;;;;;1.42;1.00;;;19.50;60.50;;;;;;5067122;28;20032;-69
2022/10/11 04:41:12;;;;;;;0.80;0.80;;;19.50;60.50;;;;;;5065951;28;20020;-69
2022/10/11 04:43:38;;;;;;;1.75;0.93;;;19.50;60.60;;;;;;5067056;28;20029;-69
2022/10/11 04:46:05;;;;;;;0.88;0.70;;;19.50;60.50;;;;;;5066977;28;20069;-69
2022/10/11 04:48:31;;;;;;;1.95;1.02;;;19.50;60.60;;;;;;5066943;28;20021;-68
2022/10/11 04:50:57;;;;;;;0.68;0.68;;;19.50;60.50;;;;;;5066911;28;20024;-68
2022/10/11 04:53:23;;;;;;;0.60;0.60;;;19.50;60.50;;;;;;5066744;28;20021;-68
2022/10/11 04:56:00;;;;;;;0.88;0.88;;;19.50;60.50;;;;;;5066810;28;20020;-68
2022/10/11 04:58:27;;;;;;;0.80;0.80;;;19.50;61.20;;;;;;5066749;28;20017;-68
2022/10/11 05:00:53;;;;;;;1.52;1.05;;;19.40;60.50;;;;;;5066709;28;20071;-68
2022/10/11 05:03:19;;;;;;;0.70;0.70;;;19.50;60.60;;;;;;5066618;28;20024;-68
2022/10/11 05:05:44;;;;;;;1.00;0.80;;;19.50;60.60;;;;;;5066623;28;20055;-68
2022/10/11 05:08:10;;;;;;;0.70;0.70;;;19.40;60.50;;;;;;5066586;28;20040;-68
2022/10/11 05:10:36;;;;;;;0.70;0.70;;;19.40;60.50;;;;;;5066534;28;20333;-68
2022/10/11 05:13:01;;;;;;;0.68;0.63;;;19.40;60.50;;;;;;5066396;28;20078;-68
2022/10/11 05:15:27;;;;;;;0.80;0.80;;;19.40;60.60;;;;;;5066293;28;20041;-68
2022/10/11 05:17:53;;;;;;;0.77;0.70;;;19.40;60.60;;;;;;5066464;28;20024;-68
2022/10/11 05:20:18;;;;;;;0.80;0.80;;;19.40;60.60;;;;;;5066332;28;20017;-68
2022/10/11 05:22:44;;;;;;;0.70;0.70;;;19.40;60.60;;;;;;5066277;28;20313;-68
2022/10/11 05:25:10;;;;;;;1.30;1.00;;;19.40;60.50;;;;;;5066241;28;20059;-68
2022/10/11 05:27:36;;;;;;;1.40;0.93;;;19.40;60.50;;;;;;5065058;28;20148;-67
2022/10/11 05:30:01;;;;;;;0.70;0.70;;;19.40;60.50;;;;;;5066143;28;20017;-68
2022/10/11 05:32:27;;;;;;;0.70;0.70;;;19.40;60.60;;;;;;5065521;28;20028;-68
2022/10/11 05:34:53;;;;;;;0.70;0.70;;;19.40;60.60;;;;;;5066010;28;20085;-69
2022/10/11 05:37:19;;;;;;;0.68;0.60;;;19.40;60.60;;;;;;5066042;28;20318;-69
2022/10/11 05:39:45;;;;;;;1.45;0.93;;;19.40;60.60;;;;;;5065945;28;20028;-69
2022/10/11 05:42:11;;;;;;;0.60;0.60;;;19.40;60.60;;;;;;5065938;28;20017;-67
2022/10/11 05:44:37;;;;;;;0.82;0.80;;;19.40;60.60;;;;;;5065872;28;20027;-68
2022/10/11 05:47:03;;;;;;;0.75;0.75;;;19.40;60.50;;;;;;5065843;28;20024;-68
2022/10/11 05:49:29;;;;;;;0.77;0.75;;;19.40;60.50;;;;;;5065800;28;20017;-69
2022/10/11 05:51:54;;;;;;;1.00;1.00;;;19.40;60.50;;;;;;5065715;28;20025;-68
2022/10/11 05:54:21;;;;;;;0.70;0.70;;;19.40;60.50;;;;;;5065618;28;20023;-68
2022/10/11 05:56:47;;;;;;;0.60;0.60;;;19.40;60.50;;;;;;5065679;28;20043;-68
2022/10/11 05:59:13;;;;;;;1.15;1.00;;;19.40;60.50;;;;;;5065615;28;20017;-68
2022/10/11 06:01:39;;;;;;;1.10;1.00;;;19.40;60.50;;;;;;5065587;28;20072;-68
2022/10/11 06:04:05;;;;;;;1.52;1.00;;;19.40;60.50;;;;;;5065619;28;20221;-69
2022/10/11 06:06:30;;;;;;;0.90;0.70;;;19.40;60.50;;;;;;5065521;28;20025;-68
2022/10/11 06:08:56;;;;;;;0.80;0.80;;;19.50;60.50;;;;;;5065433;28;20035;-69
2022/10/11 06:11:24;;;;;;;0.70;0.70;;;19.40;60.50;;;;;;5065403;28;20063;-68
2022/10/11 06:13:53;;;;;;;0.80;0.80;;;19.40;60.40;;;;;;5065323;28;20027;-69
2022/10/11 06:16:19;;;;;;;0.77;0.77;;;19.40;60.40;;;;;;5065153;28;20040;-68
2022/10/11 06:18:45;;;;;;;0.90;0.90;;;19.50;60.50;;;;;;5064079;28;20021;-68
2022/10/11 06:21:12;;;;;;;0.90;0.80;;;19.40;60.30;;;;;;5065213;28;20266;-69
2022/10/11 06:23:38;;;;;;;0.80;0.80;;;19.50;60.40;;;;;;5065163;28;20048;-68
2022/10/11 06:26:07;;;;;;;0.98;0.98;;;19.50;60.30;;;;;;5065123;28;20212;-68
2022/10/11 06:28:34;;;;;;;0.85;0.85;;;19.50;60.40;;;;;;5065126;28;20063;-69
2022/10/11 06:31:02;;;;;;;1.38;1.10;;;19.50;60.30;;;;;;5064993;28;20035;-68
2022/10/11 06:33:27;;;;;;;1.00;1.00;;;19.50;60.30;;;;;;5064857;28;20316;-68
2022/10/11 06:36:01;;;;;;;0.90;0.90;;;19.50;60.30;;;;;;5064883;28;20254;-67
2022/10/11 06:38:27;;;;;;;0.95;0.90;;;19.50;60.30;;;;;;5064933;28;20305;-70
2022/10/11 06:40:53;;;;;;;1.23;0.75;;;19.50;60.30;;;;;;5064858;28;20025;-69
2022/10/11 06:43:19;;;;;;;0.50;0.50;;;19.50;60.30;;;;;;5064765;28;20047;-69
2022/10/11 06:45:45;;;;;;;1.10;1.00;;;19.50;60.20;;;;;;5063759;28;20031;-69
2022/10/11 06:48:14;;;;;;;1.30;0.73;;;19.50;60.20;;;;;;5064693;28;20036;-68
2022/10/11 06:50:40;;;;;;;0.90;0.85;;;19.60;60.30;;;;;;5064645;28;20047;-68
2022/10/11 06:53:07;;;;;;;1.02;0.70;;;19.50;60.20;;;;;;5064511;28;20313;-68
2022/10/11 06:55:33;;;;;;;0.70;0.70;;;19.50;60.30;;;;;;5064552;28;20024;-70
2022/10/11 06:57:59;;;;;;;0.80;0.80;;;19.50;60.40;;;;;;5064523;28;20013;-68
2022/10/11 07:00:24;;;;;;;1.10;1.00;;;19.50;60.40;;;;;;5064483;28;20017;-68
2022/10/11 07:02:50;;;;;;;1.08;0.80;;;19.50;60.40;;;;;;5064398;28;20021;-69
2022/10/11 07:05:16;;;;;;;0.60;0.60;;;19.50;60.30;;;;;;5064337;28;20248;-69
2022/10/11 07:07:42;;;;;;;1.00;0.82;;;19.50;60.30;;;;;;5064304;28;20080;-69
2022/10/11 07:10:08;;;;;;;1.02;0.93;;;19.50;60.40;;;;;;5063133;28;20048;-68
2022/10/11 07:12:34;;;;;;;0.98;0.93;;;19.50;60.30;;;;;;5064225;28;20017;-69
2022/10/11 07:15:00;;;;;;;1.05;0.95;;;19.50;60.40;;;;;;5063900;28;20076;-69
2022/10/11 07:17:26;;;;;;;0.70;0.70;;;19.50;60.40;;;;;;5064150;28;20036;-69
2022/10/11 07:19:51;;;;;;;0.88;0.88;;;19.50;60.30;;;;;;5064056;28;20028;-69
2022/10/11 07:22:17;;;;;;;0.68;0.68;;;19.50;60.30;;;;;;5064055;28;20013;-69
2022/10/11 07:24:43;;;;;;;0.68;0.68;;;19.60;60.20;;;;;;5064033;28;20063;-68
2022/10/11 07:27:09;;;;;;;0.75;0.75;;;19.60;60.20;;;;;;5063940;28;20415;-68
2022/10/11 07:29:34;;;;;;;0.70;0.70;;;19.60;60.20;;;;;;5063918;28;20028;-68
2022/10/11 07:32:00;;;;;;;1.38;0.88;;;19.60;60.20;;;;;;5063866;28;20013;-68
2022/10/11 07:34:26;;;;;;;0.77;0.77;;;19.60;60.20;;;;;;5063781;28;20028;-68
2022/10/11 07:36:52;;;;;;;1.15;0.80;;;19.60;60.30;;;;;;5063774;28;20013;-68
2022/10/11 07:39:18;;;;;;;0.80;0.80;;;19.60;60.20;;;;;;5063748;28;20021;-67
2022/10/11 07:41:44;;;;;;;0.98;0.88;;;19.60;60.10;;;;;;5063707;28;20084;-68
2022/10/11 07:44:09;;;;;;;1.05;0.73;;;19.60;60.10;;;;;;5063693;28;20036;-69
2022/10/11 07:46:35;;;;;;;1.88;0.85;;;19.60;60.00;;;;;;5063617;28;20021;-67
2022/10/11 07:49:01;;;;;;;0.98;0.90;;;19.60;60.10;;;;;;5063600;28;20028;-69
2022/10/11 07:51:27;;;;;;;0.55;0.55;;;19.60;60.00;;;;;;5063588;28;20330;-68
2022/10/11 07:53:55;;;;;;;1.08;0.98;;;19.60;60.00;;;;;;5063498;28;20047;-69
2022/10/11 07:56:26;;;;;;;1.00;0.80;;;19.60;60.00;;;;;;5063338;28;20016;-68
2022/10/11 07:58:57;;;;;;;0.90;0.50;;;19.70;60.00;;;;;;5063563;28;20309;-67
2022/10/11 08:01:24;;;;;;;0.70;0.70;;;19.60;60.00;;;;;;5063532;28;20082;-68
2022/10/11 08:03:50;;;;;;;0.80;0.60;;;19.60;60.00;;;;;;5063431;28;20024;-68
2022/10/11 08:06:20;;;;;;;1.35;0.85;;;19.60;60.00;;;;;;5063425;28;20208;-68
2022/10/11 08:08:46;;;;;;;0.90;0.85;;;19.60;60.00;;;;;;5063745;28;20017;-69
2022/10/11 08:11:36;;;;;;;0.85;0.85;;;19.60;60.00;;;;;;5063390;28;20364;-69
2022/10/11 08:14:05;;;;;;;0.70;0.70;;;19.70;60.00;;;;;;5060505;28;20036;-68
2022/10/11 08:16:31;;;;;;;0.80;0.80;;;19.60;60.00;;;;;;5063054;28;20371;-67
2022/10/11 08:18:57;;;;;;;1.38;0.90;;;19.70;60.10;;;;;;5063345;28;20036;-67
2022/10/11 08:21:23;;;;;;;0.70;0.70;;;19.60;60.10;;;;;;5063319;28;20017;-68
2022/10/11 08:23:48;;;;;;;0.73;0.73;;;19.60;60.10;;;;;;5063308;28;20051;-68
2022/10/11 08:26:14;;;;;;;0.88;0.80;;;19.60;60.00;;;;;;5063240;28;20021;-68
2022/10/11 08:28:40;;;;;;;1.73;0.93;;;19.60;60.00;;;;;;5063234;28;20036;-68
2022/10/11 08:31:09;;;;;;;1.08;0.98;;;19.60;60.00;;;;;;5063215;28;20400;-67
2022/10/11 08:33:34;;;;;;;0.85;0.80;;;19.70;60.10;;;;;;5063116;28;20309;-68
2022/10/11 08:36:04;;;;;;;0.93;0.80;;;19.70;60.10;;;;;;5063164;28;20032;-69
2022/10/11 08:38:30;;;;;;;0.70;0.70;;;19.60;60.20;;;;;;5063129;28;20017;-69
2022/10/11 08:40:58;;;;;;;1.15;0.80;;;19.60;60.30;;;;;;5063129;28;20023;-68
2022/10/11 08:44:01;;;;;;;0.82;0.80;;;19.60;60.30;;;;;;5063127;28;20040;-68
2022/10/11 08:46:33;;;;;;;1.58;1.27;;;19.60;60.30;;;;;;5063063;28;20213;-68
2022/10/11 08:49:01;;;;;;;1.10;1.00;;;19.60;60.30;;;;;;5063048;28;20013;-68
2022/10/11 08:51:44;;;;;;;0.88;0.70;;;19.60;60.30;;;;;;5062997;28;20257;-68
2022/10/11 08:54:28;;;;;;;0.55;0.55;;;19.60;60.30;;;;;;5063189;28;20021;-68
2022/10/11 08:56:54;;;;;;;1.00;0.90;;;19.60;60.30;;;;;;5063029;28;20016;-69
2022/10/11 08:59:37;;;;;;;0.70;0.70;;;19.60;60.40;;;;;;5062935;28;20023;-68
2022/10/11 09:02:35;;;;;;;0.90;0.90;;;19.60;60.40;;;;;;5062950;28;20372;-69
2022/10/11 09:05:03;;;;;;;1.05;0.98;;;19.60;60.40;;;;;;5061152;28;20088;-69
2022/10/11 09:07:55;;;;;;;1.00;0.87;;;19.60;60.50;;;;;;5062973;28;20039;-69
2022/10/11 09:10:30;;;;;;;1.17;1.08;;;19.50;60.50;;;;;;5065431;28;20262;-69
2022/10/11 09:13:30;;;;;;;0.75;0.73;;;19.60;60.60;;;;;;5066464;28;20251;-70
2022/10/11 09:16:34;;;;;;;1.00;0.93;;;19.60;60.60;;;;;;5066202;28;20049;-69
2022/10/11 09:19:29;;;;;;;1.15;0.95;;;19.50;60.60;;;;;;5057874;28;20056;-67
2022/10/11 09:21:58;;;;;;;0.65;0.65;;;19.50;60.50;;;;;;5066364;28;20384;-68
2022/10/11 09:24:46;;;;;;;0.77;0.77;;;19.60;60.60;;;;;;5066274;28;20087;-68
2022/10/11 09:27:26;;;;;;;1.15;0.95;;;19.60;60.60;;;;;;5066295;28;20057;-68
2022/10/11 09:30:04;;;;;;;0.90;0.80;;;19.60;60.60;;;;;;5066243;28;20210;-68
2022/10/11 09:32:45;;;;;;;0.93;0.82;;;19.60;60.60;;;;;;5066134;28;20244;-67
2022/10/11 09:35:14;;;;;;;0.70;0.70;;;19.60;60.60;;;;;;5066151;28;20217;-68
2022/10/11 09:38:03;;;;;;;0.90;0.88;;;19.60;60.60;;;;;;5066082;28;20082;-68
2022/10/11 09:40:35;;;;;;;2.45;0.85;;;19.60;60.50;;;;;;5065684;28;20052;-68
2022/10/11 09:43:01;;;;;;;0.75;0.70;;;19.60;60.50;;;;;;5065997;28;20185;-68
2022/10/11 09:45:27;;;;;;;1.23;1.13;;;19.60;60.50;;;;;;5065992;28;20039;-69
2022/10/11 09:47:56;;;;;;;1.08;0.98;;;19.60;60.60;;;;;;5065908;28;20070;-67
2022/10/11 09:50:29;;;;;;;0.80;0.80;;;19.60;60.50;;;;;;5065858;28;20205;-67
2022/10/11 09:53:02;;;;;;;0.63;0.60;;;19.60;60.60;;;;;;5065757;28;20020;-68
2022/10/11 09:55:49;;;;;;;0.80;0.77;;;19.60;60.50;;;;;;5066081;28;20304;-68
2022/10/11 09:58:34;;;;;;;0.60;0.60;;;19.60;60.50;;;;;;5065793;28;20218;-68
2022/10/11 10:01:10;;;;;;;1.02;1.00;;;19.60;60.60;;;;;;5065659;28;20021;-67
2022/10/11 10:03:39;;;;;;;1.08;0.75;;;19.60;60.60;;;;;;5065571;28;20021;-67
2022/10/11 10:06:23;;;;;;;1.13;0.70;;;19.60;60.60;;;;;;5065639;28;20442;-68
2022/10/11 10:08:49;;;;;;;0.80;0.80;;;19.60;60.60;;;;;;5065534;28;20092;-69
2022/10/11 10:11:16;;;;;;;2.05;0.80;;;19.60;60.60;;;;;;5065460;28;20025;-69
2022/10/11 10:13:51;;;;;;;0.82;0.80;;;19.60;60.60;;;;;;5065389;28;20334;-68
2022/10/11 10:16:31;;;;;;;0.90;0.70;;;19.60;60.50;;;;;;5065066;28;20041;-70
2022/10/11 10:19:02;;;;;;;1.00;0.90;;;19.70;60.50;;;;;;5065275;28;20036;-69
2022/10/11 10:21:42;;;;;;;1.70;0.80;;;19.60;60.40;;;;;;5065273;28;20327;-68
2022/10/11 10:24:27;;;;;;;1.20;1.10;;;19.70;60.40;;;;;;5065182;28;20027;-68
2022/10/11 10:27:15;;;;;;;0.98;0.82;;;19.70;60.30;;;;;;5065195;28;20016;-68
2022/10/11 10:29:43;;;;;;;0.70;0.70;;;19.70;60.30;;;;;;5065167;28;20025;-68
2022/10/11 10:32:21;;;;;;;0.98;0.88;;;19.70;60.30;;;;;;5065060;28;20342;-68
2022/10/11 10:35:11;;;;;;;0.88;0.80;;;19.70;60.30;;;;;;5064974;28;20025;-68
2022/10/11 10:37:55;;;;;;;0.82;0.77;;;19.70;60.20;;;;;;5064949;28;20020;-68
2022/10/11 10:40:26;;;;;;;0.85;0.80;;;19.70;60.20;;;;;;5064896;28;20076;-68
2022/10/11 10:42:52;;;;;;;0.73;0.73;;;19.80;60.20;;;;;;5064900;28;20284;-69
2022/10/11 10:45:23;;;;;;;0.77;0.77;;;19.80;60.20;;;;;;5064777;28;20016;-68
2022/10/11 10:48:07;;;;;;;0.65;0.65;;;19.80;60.20;;;;;;5064796;28;20080;-68
2022/10/11 10:50:38;;;;;;;0.82;0.80;;;19.80;60.20;;;;;;5064726;28;20058;-68
2022/10/11 10:53:22;;;;;;;0.80;0.80;;;19.80;60.10;;;;;;5064537;28;20339;-68
2022/10/11 10:56:02;;;;;;;0.77;0.70;;;19.80;60.10;;;;;;5064589;28;20021;-67
2022/10/11 10:58:43;;;;;;;0.93;0.85;;;19.90;60.10;;;;;;5064528;28;20017;-68
2022/10/11 11:01:17;;;;;;;0.65;0.60;;;19.90;60.10;;;;;;5064478;28;20017;-68
2022/10/11 11:03:57;;;;;;;1.00;0.90;;;19.90;60.10;;;;;;5064450;28;20214;-68
2022/10/11 11:06:29;;;;;;;0.60;0.60;;;19.90;60.10;;;;;;5064408;28;20051;-68
2022/10/11 11:09:26;;;;;;;1.00;0.90;;;19.90;60.10;;;;;;5064380;28;20021;-68
2022/10/11 11:12:24;;;;;;;0.60;0.60;;;19.90;60.00;;;;;;5064314;28;20044;-69
2022/10/11 11:15:04;;;;;;;0.90;0.90;;;19.90;60.10;;;;;;5061261;28;20045;-69
2022/10/11 11:18:08;;;;;;;0.80;0.80;;;19.90;60.10;;;;;;5064045;28;20117;-67
2022/10/11 11:21:20;;;;;;;0.85;0.85;;;19.90;60.10;;;;;;5062998;28;20055;-67
2022/10/11 11:23:58;;;;;;;0.65;0.65;;;20.00;60.10;;;;;;5060939;28;20263;-68
2022/10/11 11:26:33;;;;;;;0.98;0.93;;;20.00;60.10;;;;;;5064082;28;20017;-69
2022/10/11 11:29:10;;;;;;;1.10;1.00;;;20.00;60.10;;;;;;5064010;28;20099;-67
2022/10/11 11:31:52;;;;;;;0.60;0.60;;;20.00;60.10;;;;;;5063486;28;20021;-68
2022/10/11 11:34:35;;;;;;;0.70;0.70;;;20.00;60.10;;;;;;5063838;28;20365;-67
2022/10/11 11:37:10;;;;;;;0.70;0.70;;;20.00;60.10;;;;;;5063926;28;20305;-67
2022/10/11 11:39:48;;;;;;;0.82;0.82;;;20.00;60.00;;;;;;5063851;28;20019;-68
2022/10/11 11:42:23;;;;;;;0.70;0.70;;;20.00;60.00;;;;;;5063808;28;20024;-69
2022/10/11 11:44:50;;;;;;;0.65;0.65;;;20.00;60.00;;;;;;5063707;28;20027;-67
2022/10/11 11:47:36;;;;;;;0.60;0.60;;;20.00;60.00;;;;;;5063732;28;20028;-68
2022/10/11 11:50:08;;;;;;;1.02;0.98;;;20.10;60.00;;;;;;5063436;28;20037;-69
2022/10/11 11:52:43;;;;;;;0.70;0.70;;;20.10;60.00;;;;;;5063658;28;20052;-68
2022/10/11 11:55:35;;;;;;;0.75;0.75;;;20.10;60.10;;;;;;5063527;28;20016;-69
2022/10/11 11:58:09;;;;;;;0.85;0.85;;;20.10;60.20;;;;;;5062295;28;20033;-68
2022/10/11 12:00:47;;;;;;;1.02;0.93;;;20.10;60.10;;;;;;5062363;28;20031;-68
2022/10/11 12:03:22;;;;;;;0.60;0.60;;;20.10;60.00;;;;;;5063164;28;20017;-67
2022/10/11 12:06:13;;;;;;;0.70;0.70;;;20.10;60.00;;;;;;5063507;28;20021;-69
2022/10/11 12:08:48;;;;;;;0.70;0.70;;;20.20;59.90;;;;;;5063394;28;20027;-68
2022/10/11 12:11:42;;;;;;;0.60;0.60;;;20.10;60.00;;;;;;5063459;28;20025;-68
2022/10/11 12:14:37;;;;;;;0.85;0.70;;;20.10;60.10;;;;;;5060899;28;20029;-69
2022/10/11 12:17:19;;;;;;;0.98;0.88;;;20.10;60.20;;;;;;5062792;28;20040;-68
2022/10/11 12:20:42;;;;;;;0.70;0.70;;;20.00;60.20;;;;;;5063389;28;20313;-68
2022/10/11 12:23:27;;;;;;;1.17;1.10;;;20.10;60.20;;;;;;5052316;28;20048;-68
2022/10/11 12:26:17;;;;;;;0.90;0.90;;;20.00;60.20;;;;;;5063265;28;20013;-69
2022/10/11 12:28:47;;;;;;;0.75;0.75;;;20.10;60.20;;;;;;5063217;28;20021;-68
2022/10/11 12:31:25;;;;;;;0.60;0.60;;;20.10;60.20;;;;;;5063524;28;20086;-68
2022/10/11 12:34:13;;;;;;;0.73;0.73;;;20.10;60.20;;;;;;5063196;28;20084;-67
2022/10/11 12:36:45;;;;;;;0.80;0.80;;;20.10;60.30;;;;;;5063089;28;20017;-68
2022/10/11 12:39:17;;;;;;;1.17;0.70;;;20.10;60.30;;;;;;5063088;28;20338;-68
2022/10/11 12:41:52;;;;;;;0.82;0.75;;;20.00;60.30;;;;;;5063147;28;20028;-67
2022/10/11 12:44:18;;;;;;;1.02;0.90;;;20.00;60.40;;;;;;5066154;28;20021;-69
2022/10/11 12:46:50;;;;;;;0.75;0.70;;;20.00;60.40;;;;;;5067036;28;20020;-69
2022/10/11 12:49:31;;;;;;;0.73;0.73;;;20.00;60.50;;;;;;5066981;28;20186;-68
2022/10/11 12:52:03;;;;;;;1.02;0.90;;;20.00;60.50;;;;;;5066990;28;20024;-69
2022/10/11 12:54:58;;;;;;;0.70;0.70;;;20.00;60.60;;;;;;5066835;28;20312;-68
2022/10/11 12:57:58;;;;;;;1.00;0.90;;;20.00;60.60;;;;;;5047541;28;20075;-69
2022/10/11 13:00:27;;;;;;;0.73;0.73;;;19.90;60.60;;;;;;5066797;28;20075;-67
2022/10/11 13:03:01;;;;;;;0.90;0.90;;;19.90;60.70;;;;;;5066727;28;20329;-67
2022/10/11 13:05:43;;;;;;;0.70;0.70;;;19.90;60.70;;;;;;5066704;28;20024;-67
2022/10/11 13:08:17;;;;;;;0.60;0.60;;;19.90;60.70;;;;;;5065834;28;20116;-69
2022/10/11 13:10:45;;;;;;;0.82;0.77;;;19.90;60.70;;;;;;5066688;28;20017;-68
2022/10/11 13:13:23;;;;;;;0.98;0.80;;;19.90;60.70;;;;;;5066492;28;20021;-69
2022/10/11 13:15:51;;;;;;;;;;;19.90;60.70;;;;;;5066752;28;20325;-68